Time;durP1;ratioP1;P1;durP2;ratioP2;P2;SDS_P1;SDS_P2;PMS_P1;PMS_P2;Temp;Humidity;BMP_temperature;BMP_pressure;BME280_temperature;BME280_humidity;BME280_pressure;Samples;Min_cycle;Max_cycle;Signal;HPM_P1;HPM_P2
2022/05/10 00:01:24;;;;;;;12.83;6.10;;;15.60;70.00;;;;;;5066219;28;20482;-79
2022/05/10 00:03:56;;;;;;;9.17;5.40;;;15.60;70.00;;;;;;5059276;28;21240;-78
2022/05/10 00:06:25;;;;;;;13.90;6.40;;;15.60;70.00;;;;;;5064682;28;20542;-78
2022/05/10 00:08:53;;;;;;;7.93;5.90;;;15.60;70.00;;;;;;5077710;28;20557;-77
2022/05/10 00:11:21;;;;;;;9.13;7.37;;;15.50;70.00;;;;;;5063604;28;20488;-77
2022/05/10 00:13:49;;;;;;;9.23;5.97;;;15.50;70.00;;;;;;5062799;28;20485;-77
2022/05/10 00:16:18;;;;;;;10.73;7.07;;;15.50;70.00;;;;;;5064222;28;20554;-77
2022/05/10 00:18:48;;;;;;;8.40;6.07;;;15.50;70.10;;;;;;5067503;28;20446;-78
2022/05/10 00:21:18;;;;;;;7.80;6.10;;;15.50;70.10;;;;;;5065106;28;20488;-77
2022/05/10 00:23:46;;;;;;;9.10;6.50;;;15.40;69.90;;;;;;5062538;28;20474;-78
2022/05/10 00:26:14;;;;;;;8.20;5.80;;;15.40;69.80;;;;;;5063613;28;20454;-76
2022/05/10 00:28:42;;;;;;;8.40;5.73;;;15.30;70.10;;;;;;5066256;28;20794;-78
2022/05/10 00:31:12;;;;;;;8.87;6.20;;;15.30;70.20;;;;;;5062602;28;20474;-77
2022/05/10 00:33:40;;;;;;;8.77;6.23;;;15.30;70.20;;;;;;5066027;28;20550;-78
2022/05/10 00:36:12;;;;;;;9.13;6.17;;;15.20;70.10;;;;;;5065288;28;20456;-78
2022/05/10 00:38:42;;;;;;;9.27;6.77;;;15.20;70.20;;;;;;5064360;28;20469;-78
2022/05/10 00:41:17;;;;;;;8.67;6.60;;;15.20;70.30;;;;;;5063097;28;20497;-78
2022/05/10 00:43:49;;;;;;;10.73;6.63;;;15.20;70.40;;;;;;5064512;28;20461;-78
2022/05/10 00:46:23;;;;;;;8.03;6.20;;;15.20;70.40;;;;;;5063701;28;20471;-78
2022/05/10 00:48:58;;;;;;;9.40;6.10;;;15.20;70.30;;;;;;5066249;28;20433;-78
2022/05/10 00:51:37;;;;;;;9.13;6.40;;;15.20;70.40;;;;;;5066625;28;20466;-78
2022/05/10 00:54:10;;;;;;;8.60;6.13;;;15.20;70.40;;;;;;5065627;28;20441;-78
2022/05/10 00:56:43;;;;;;;11.00;7.00;;;15.20;70.40;;;;;;5065287;28;20606;-78
2022/05/10 00:59:20;;;;;;;9.67;6.73;;;15.20;70.40;;;;;;5061154;28;20488;-79
2022/05/10 01:01:53;;;;;;;12.00;6.97;;;15.20;70.40;;;;;;5063561;28;20949;-78
2022/05/10 01:04:27;;;;;;;8.83;6.50;;;15.10;70.40;;;;;;5064994;28;20572;-78
2022/05/10 01:07:01;;;;;;;8.27;6.20;;;15.20;70.40;;;;;;5066492;28;20476;-78
2022/05/10 01:09:41;;;;;;;11.60;6.70;;;15.10;70.30;;;;;;5066054;28;20450;-78
2022/05/10 01:12:15;;;;;;;8.67;6.17;;;15.00;70.10;;;;;;5080617;28;20826;-78
2022/05/10 01:14:49;;;;;;;7.87;5.70;;;14.90;70.10;;;;;;5063789;28;20485;-78
2022/05/10 01:17:18;;;;;;;9.03;6.17;;;14.90;70.10;;;;;;5059878;28;21013;-78
2022/05/10 01:19:46;;;;;;;10.03;6.80;;;14.80;70.30;;;;;;5064004;28;20446;-78
2022/05/10 01:22:32;;;;;;;10.47;7.23;;;14.80;70.40;;;;;;5062842;28;20491;-78
2022/05/10 01:25:18;;;;;;;12.17;8.10;;;14.70;70.40;;;;;;5063067;28;20450;-78
2022/05/10 01:28:05;;;;;;;13.10;7.80;;;14.70;70.60;;;;;;5063902;28;20466;-78
2022/05/10 01:30:33;;;;;;;11.00;7.50;;;14.70;70.70;;;;;;5063629;28;20592;-78
2022/05/10 01:33:31;;;;;;;12.37;7.80;;;14.70;70.80;;;;;;5064519;28;20926;-78
2022/05/10 01:36:11;;;;;;;10.97;7.47;;;14.80;70.80;;;;;;5063002;28;20464;-78
2022/05/10 01:38:45;;;;;;;9.60;6.43;;;14.80;70.70;;;;;;5080306;28;20462;-78
2022/05/10 01:41:22;;;;;;;9.63;6.80;;;14.70;70.70;;;;;;5067309;28;20488;-78
2022/05/10 01:43:59;;;;;;;9.77;6.63;;;14.60;70.70;;;;;;5079354;28;20473;-78
2022/05/10 01:46:30;;;;;;;12.13;7.17;;;14.60;70.80;;;;;;5063476;28;20474;-77
2022/05/10 01:49:06;;;;;;;10.97;6.80;;;14.60;70.80;;;;;;5060951;28;20453;-79
2022/05/10 01:51:39;;;;;;;8.60;6.70;;;14.60;70.90;;;;;;5062188;28;20473;-78
2022/05/10 01:54:26;;;;;;;9.57;6.20;;;14.60;70.90;;;;;;5061215;28;20450;-78
2022/05/10 01:56:54;;;;;;;9.53;6.87;;;14.60;70.90;;;;;;5058709;28;20461;-78
2022/05/10 01:59:23;;;;;;;11.40;6.87;;;14.60;70.80;;;;;;5061090;28;20458;-78
2022/05/10 02:01:51;;;;;;;9.73;6.50;;;14.60;70.80;;;;;;5059832;28;20560;-78
2022/05/10 02:04:25;;;;;;;9.73;7.10;;;14.60;70.80;;;;;;5061543;28;20541;-78
2022/05/10 02:06:57;;;;;;;11.83;7.00;;;14.60;70.80;;;;;;5064300;28;20978;-78
2022/05/10 02:09:32;;;;;;;8.90;6.17;;;14.60;70.80;;;;;;5065216;28;20480;-78
2022/05/10 02:12:06;;;;;;;8.97;6.77;;;14.60;70.70;;;;;;5066690;28;20470;-78
2022/05/10 02:14:40;;;;;;;8.20;5.97;;;14.60;70.70;;;;;;5081918;28;20500;-78
2022/05/10 02:17:15;;;;;;;9.73;6.50;;;14.50;70.60;;;;;;5083050;28;20477;-78
2022/05/10 02:19:49;;;;;;;9.47;6.90;;;14.50;70.70;;;;;;5067364;28;20460;-78
2022/05/10 02:22:23;;;;;;;10.90;7.10;;;14.50;70.70;;;;;;5068791;28;20876;-78
2022/05/10 02:24:56;;;;;;;9.10;6.60;;;14.50;70.70;;;;;;5067368;28;20462;-78
2022/05/10 02:27:31;;;;;;;9.30;6.33;;;14.50;70.70;;;;;;5058067;28;20975;-78
2022/05/10 02:30:04;;;;;;;8.87;6.60;;;14.50;70.70;;;;;;5067254;28;20456;-78
2022/05/10 02:35:24;;;;;;;14.53;7.90;;;14.50;70.70;;;;;;5066693;28;20946;-78
2022/05/10 02:37:52;;;;;;;10.67;7.10;;;14.50;70.60;;;;;;5067686;28;20465;-78
2022/05/10 02:40:20;;;;;;;8.33;6.30;;;14.40;70.50;;;;;;5070977;28;20450;-78
2022/05/10 02:42:49;;;;;;;11.80;7.57;;;14.30;70.50;;;;;;5065872;28;20485;-78
2022/05/10 02:45:19;;;;;;;11.50;6.83;;;14.20;70.50;;;;;;5065104;28;20457;-78
2022/05/10 02:47:49;;;;;;;9.30;6.37;;;14.20;70.60;;;;;;5067346;28;20457;-78
2022/05/10 02:50:23;;;;;;;13.23;6.70;;;14.10;70.60;;;;;;5065660;28;20519;-78
2022/05/10 02:52:51;;;;;;;9.90;7.13;;;14.00;70.70;;;;;;5067503;28;20654;-78
2022/05/10 02:55:23;;;;;;;9.00;6.33;;;14.00;70.90;;;;;;5068238;28;20485;-78
2022/05/10 02:57:53;;;;;;;9.90;6.87;;;13.90;71.00;;;;;;5066875;28;20852;-77
2022/05/10 03:00:25;;;;;;;8.70;6.83;;;14.00;71.20;;;;;;5054900;28;20469;-78
2022/05/10 03:02:59;;;;;;;9.60;6.70;;;14.00;71.40;;;;;;5076322;28;21022;-77
2022/05/10 03:05:27;;;;;;;8.17;6.10;;;14.10;71.30;;;;;;5062631;28;20478;-76
2022/05/10 03:07:55;;;;;;;9.77;6.83;;;14.10;71.30;;;;;;5066951;28;20458;-76
2022/05/10 03:10:29;;;;;;;9.23;6.60;;;14.10;71.20;;;;;;5078143;28;20492;-77
2022/05/10 03:12:57;;;;;;;9.60;7.20;;;14.10;71.10;;;;;;5066032;28;20477;-77
2022/05/10 03:15:27;;;;;;;10.13;6.50;;;14.00;71.10;;;;;;5062601;28;22993;-77
2022/05/10 03:17:55;;;;;;;10.30;7.10;;;14.00;71.10;;;;;;5063378;28;20468;-77
2022/05/10 03:20:23;;;;;;;9.70;6.97;;;14.00;71.10;;;;;;5063708;28;20457;-77
2022/05/10 03:22:51;;;;;;;9.83;7.03;;;13.90;71.10;;;;;;5067183;28;20478;-77
2022/05/10 03:25:21;;;;;;;10.07;7.10;;;13.90;71.10;;;;;;5066655;28;20458;-77
2022/05/10 03:27:50;;;;;;;10.73;6.97;;;13.90;71.20;;;;;;5065421;28;20530;-76
2022/05/10 03:30:19;;;;;;;8.97;6.70;;;13.90;71.20;;;;;;5065389;28;20904;-77
2022/05/10 03:32:48;;;;;;;10.90;6.80;;;14.00;71.20;;;;;;5062867;28;20564;-77
2022/05/10 03:35:16;;;;;;;8.97;6.37;;;14.00;71.10;;;;;;5064885;28;20461;-77
2022/05/10 03:37:44;;;;;;;8.30;6.17;;;13.90;71.20;;;;;;5065464;28;20473;-76
2022/05/10 03:40:13;;;;;;;10.77;7.00;;;14.00;71.20;;;;;;5064697;28;20481;-76
2022/05/10 03:42:46;;;;;;;9.93;7.37;;;14.00;71.20;;;;;;5064322;28;20489;-78
2022/05/10 03:45:15;;;;;;;12.50;6.93;;;14.00;71.20;;;;;;5065372;28;20454;-77
2022/05/10 03:47:43;;;;;;;8.70;5.93;;;14.00;71.10;;;;;;5062649;28;20462;-76
2022/05/10 03:50:15;;;;;;;9.87;6.90;;;14.00;71.10;;;;;;5057862;28;20461;-77
2022/05/10 03:52:43;;;;;;;10.60;6.80;;;13.90;71.10;;;;;;5076396;28;20486;-76
2022/05/10 03:55:15;;;;;;;12.50;7.00;;;13.90;71.10;;;;;;5064149;28;21076;-77
2022/05/10 03:57:44;;;;;;;10.00;7.30;;;13.90;71.10;;;;;;5060586;28;20466;-77
2022/05/10 04:00:16;;;;;;;10.30;7.53;;;13.90;71.10;;;;;;5064538;28;20524;-77
2022/05/10 04:02:45;;;;;;;9.47;7.33;;;13.90;71.20;;;;;;5064305;28;20504;-77
2022/05/10 04:05:16;;;;;;;10.87;7.70;;;13.90;71.30;;;;;;5075367;28;20451;-77
2022/05/10 04:07:44;;;;;;;9.30;7.17;;;13.90;71.20;;;;;;5064880;28;20458;-77
2022/05/10 04:10:14;;;;;;;10.77;7.40;;;13.90;71.20;;;;;;5059886;28;20459;-77
2022/05/10 04:12:43;;;;;;;16.17;8.20;;;13.90;71.20;;;;;;5065474;28;21057;-77
2022/05/10 04:15:14;;;;;;;10.30;6.70;;;13.90;71.20;;;;;;5062803;28;20461;-77
2022/05/10 04:17:43;;;;;;;9.50;6.80;;;13.90;71.20;;;;;;5058794;28;20874;-77
2022/05/10 04:20:13;;;;;;;10.13;7.00;;;13.90;71.20;;;;;;5061422;28;20531;-77
2022/05/10 04:22:42;;;;;;;9.10;6.93;;;13.90;71.20;;;;;;5072734;28;20489;-77
2022/05/10 04:25:14;;;;;;;10.07;7.43;;;14.00;71.20;;;;;;5062780;28;20458;-77
2022/05/10 04:27:42;;;;;;;9.73;5.77;;;14.00;71.30;;;;;;5061626;28;20458;-77
2022/05/10 04:30:11;;;;;;;10.07;6.83;;;14.00;71.30;;;;;;5063413;28;20451;-77
2022/05/10 04:32:41;;;;;;;9.20;7.23;;;14.10;71.30;;;;;;5061073;28;20507;-77
2022/05/10 04:35:10;;;;;;;9.83;7.07;;;14.10;71.30;;;;;;5065494;28;20461;-77
2022/05/10 04:37:39;;;;;;;10.20;6.90;;;14.10;71.40;;;;;;5063072;28;20466;-77
2022/05/10 04:42:57;;;;;;;10.00;7.20;;;14.30;71.50;;;;;;5052167;28;21321;-76
2022/05/10 04:45:25;;;;;;;10.63;7.20;;;14.30;71.40;;;;;;5061107;28;20508;-77
2022/05/10 04:47:53;;;;;;;10.43;6.73;;;14.40;71.50;;;;;;5063134;28;20454;-77
2022/05/10 04:50:21;;;;;;;8.40;6.73;;;14.50;71.60;;;;;;5061444;28;21002;-77
2022/05/10 04:52:49;;;;;;;10.50;7.03;;;14.60;71.70;;;;;;5058673;28;21505;-77
2022/05/10 04:55:20;;;;;;;8.90;6.70;;;14.70;71.70;;;;;;5058989;28;21248;-78
2022/05/10 04:57:48;;;;;;;9.40;7.00;;;14.80;71.80;;;;;;5060753;28;21262;-77
2022/05/10 05:00:21;;;;;;;9.60;6.77;;;14.90;71.80;;;;;;5061662;28;20462;-77
2022/05/10 05:02:49;;;;;;;11.47;7.00;;;15.00;71.90;;;;;;5063088;28;20485;-77
2022/05/10 05:05:17;;;;;;;8.67;6.57;;;15.20;72.00;;;;;;5059872;28;20526;-77
2022/05/10 05:07:46;;;;;;;8.83;7.20;;;15.30;72.20;;;;;;5058650;28;20467;-77
2022/05/10 05:10:13;;;;;;;9.17;7.00;;;15.50;72.50;;;;;;5062781;28;20462;-77
2022/05/10 05:12:43;;;;;;;9.10;6.67;;;15.70;73.00;;;;;;5064231;28;20489;-77
2022/05/10 05:15:13;;;;;;;9.77;6.87;;;16.00;72.70;;;;;;5063859;28;20462;-77
2022/05/10 05:17:47;;;;;;;10.97;7.60;;;16.40;72.20;;;;;;5064460;28;20473;-77
2022/05/10 05:20:15;;;;;;;9.93;8.03;;;16.80;71.90;;;;;;5060190;28;20454;-77
2022/05/10 05:22:46;;;;;;;10.30;7.67;;;17.30;70.80;;;;;;5062581;28;20512;-77
2022/05/10 05:25:14;;;;;;;10.30;7.47;;;17.60;69.90;;;;;;5059344;28;20478;-76
2022/05/10 05:27:44;;;;;;;9.20;7.17;;;17.90;69.40;;;;;;5063054;28;20484;-76
2022/05/10 05:30:16;;;;;;;10.63;8.00;;;18.10;69.30;;;;;;5063781;28;20489;-76
2022/05/10 05:32:44;;;;;;;10.70;7.70;;;18.40;69.10;;;;;;5063406;28;20498;-76
2022/05/10 05:35:13;;;;;;;9.70;7.13;;;18.80;69.00;;;;;;5063425;28;20446;-76
2022/05/10 05:37:41;;;;;;;11.83;7.90;;;19.10;68.60;;;;;;5063926;28;20469;-78
2022/05/10 05:40:12;;;;;;;10.53;7.73;;;19.40;68.20;;;;;;5060891;28;20458;-76
2022/05/10 05:42:48;;;;;;;13.50;8.50;;;19.60;67.70;;;;;;5064564;28;20501;-78
2022/05/10 05:45:18;;;;;;;11.43;8.33;;;19.70;67.60;;;;;;5065332;28;20491;-77
2022/05/10 05:47:47;;;;;;;12.43;9.40;;;19.90;67.80;;;;;;5060365;28;20545;-77
2022/05/10 05:50:17;;;;;;;11.40;8.33;;;20.20;67.60;;;;;;5064728;28;20460;-77
2022/05/10 05:52:46;;;;;;;12.77;9.00;;;20.60;67.20;;;;;;5065681;28;20482;-79
2022/05/10 05:55:14;;;;;;;11.43;9.17;;;20.90;66.60;;;;;;5064486;28;20454;-78
2022/05/10 05:57:43;;;;;;;11.63;8.70;;;21.10;66.10;;;;;;5067475;28;20473;-79
2022/05/10 06:00:19;;;;;;;12.90;10.10;;;21.30;66.10;;;;;;5067840;28;21302;-78
2022/05/10 06:02:48;;;;;;;11.57;8.80;;;21.60;65.30;;;;;;5065759;28;20493;-77
2022/05/10 06:05:16;;;;;;;15.00;9.73;;;21.70;64.60;;;;;;5068981;28;20573;-77
2022/05/10 06:07:44;;;;;;;12.27;9.47;;;21.60;64.10;;;;;;5063122;28;20454;-77
2022/05/10 06:10:13;;;;;;;12.50;9.37;;;21.20;63.50;;;;;;5064185;28;20442;-77
2022/05/10 06:12:42;;;;;;;12.60;10.20;;;20.70;63.50;;;;;;5062402;28;20474;-77
2022/05/10 06:15:14;;;;;;;14.70;9.93;;;20.10;63.70;;;;;;5062699;28;20780;-77
2022/05/10 06:17:46;;;;;;;16.00;9.87;;;19.50;64.20;;;;;;5061371;28;21351;-78
2022/05/10 06:20:16;;;;;;;13.00;9.80;;;19.10;64.80;;;;;;5078893;28;20457;-78
2022/05/10 06:22:45;;;;;;;12.57;8.93;;;18.70;65.40;;;;;;5066477;28;20500;-78
2022/05/10 06:25:17;;;;;;;13.80;9.87;;;18.40;65.80;;;;;;5065386;28;20476;-78
2022/05/10 06:27:45;;;;;;;15.23;11.20;;;18.10;66.40;;;;;;5063206;28;20970;-79
2022/05/10 06:30:15;;;;;;;13.07;10.77;;;17.90;67.00;;;;;;5064257;28;20454;-78
2022/05/10 06:32:44;;;;;;;12.57;10.07;;;17.80;67.50;;;;;;5064276;28;20482;-79
2022/05/10 06:35:12;;;;;;;13.37;9.30;;;17.70;67.90;;;;;;5066943;28;20977;-78
2022/05/10 06:40:32;;;;;;;14.93;10.43;;;17.60;68.60;;;;;;5062957;28;20477;-78
2022/05/10 06:43:02;;;;;;;12.90;9.60;;;17.60;69.10;;;;;;5063515;28;20478;-78
2022/05/10 06:45:32;;;;;;;12.87;9.30;;;17.60;69.40;;;;;;5059815;28;20953;-78
2022/05/10 06:48:01;;;;;;;12.60;9.80;;;17.60;69.50;;;;;;5064186;28;20442;-78
2022/05/10 06:50:30;;;;;;;13.70;10.13;;;17.70;69.70;;;;;;5062421;28;21002;-79
2022/05/10 06:52:59;;;;;;;13.17;10.10;;;17.70;69.80;;;;;;5064710;28;20481;-78
2022/05/10 06:55:29;;;;;;;14.70;10.80;;;17.80;70.00;;;;;;5066929;28;20446;-78
2022/05/10 06:57:58;;;;;;;14.80;10.50;;;17.90;70.10;;;;;;5059749;28;20457;-78
2022/05/10 07:00:32;;;;;;;13.30;10.30;;;17.90;70.20;;;;;;5062775;28;20470;-78
2022/05/10 07:03:04;;;;;;;13.83;9.80;;;17.90;70.30;;;;;;5064643;28;20541;-78
2022/05/10 07:05:33;;;;;;;14.83;10.13;;;18.00;70.40;;;;;;5065980;28;20985;-78
2022/05/10 07:08:01;;;;;;;13.83;11.00;;;18.00;70.50;;;;;;5065040;28;20727;-78
2022/05/10 07:10:31;;;;;;;12.57;9.57;;;18.00;70.60;;;;;;5068541;28;20442;-78
2022/05/10 07:12:59;;;;;;;12.33;9.50;;;18.10;70.70;;;;;;5067760;28;20486;-78
2022/05/10 07:15:27;;;;;;;14.17;9.60;;;18.10;70.70;;;;;;5066950;28;20473;-78
2022/05/10 07:17:55;;;;;;;16.30;10.20;;;18.10;70.80;;;;;;5070373;28;20936;-78
2022/05/10 07:20:25;;;;;;;15.10;10.37;;;18.10;71.00;;;;;;5068745;28;20450;-78
2022/05/10 07:22:53;;;;;;;13.07;10.17;;;18.10;71.10;;;;;;5062452;28;20500;-78
2022/05/10 07:25:25;;;;;;;14.73;10.13;;;18.00;71.20;;;;;;5060873;28;22676;-78
2022/05/10 07:27:53;;;;;;;14.80;11.17;;;18.00;71.40;;;;;;5065489;28;20454;-78
2022/05/10 07:30:22;;;;;;;13.67;9.70;;;18.00;71.60;;;;;;5066399;28;21294;-78
2022/05/10 07:32:51;;;;;;;14.60;10.30;;;18.00;71.80;;;;;;5067388;28;20477;-78
2022/05/10 07:36:23;;;;;;;12.27;10.67;;;18.00;71.90;;;;;;5067657;28;20464;-78
2022/05/10 07:38:12;;;;;;;12.30;9.80;;;18.10;72.00;;;;;;5066123;28;20446;-78
2022/05/10 07:40:40;;;;;;;14.03;11.00;;;18.10;72.20;;;;;;5080661;28;20469;-78
2022/05/10 07:43:13;;;;;;;17.17;11.47;;;18.10;72.30;;;;;;5068461;28;20527;-78
2022/05/10 07:45:43;;;;;;;14.13;10.30;;;18.20;72.50;;;;;;5068151;28;20483;-78
2022/05/10 07:48:11;;;;;;;14.70;11.07;;;18.20;72.50;;;;;;5064649;28;20978;-78
2022/05/10 07:50:40;;;;;;;15.37;10.63;;;18.20;72.60;;;;;;5068360;28;20482;-78
2022/05/10 07:53:12;;;;;;;12.73;10.67;;;18.30;72.70;;;;;;5064057;28;20493;-78
2022/05/10 07:55:40;;;;;;;15.63;10.70;;;18.30;72.70;;;;;;5063133;28;20455;-78
2022/05/10 07:58:09;;;;;;;14.13;11.00;;;18.40;72.70;;;;;;5067972;28;20507;-77
2022/05/10 08:00:39;;;;;;;13.43;10.60;;;18.40;72.80;;;;;;5065934;28;20828;-77
2022/05/10 08:03:12;;;;;;;15.00;10.53;;;18.50;72.90;;;;;;5066008;28;20485;-77
2022/05/10 08:05:41;;;;;;;13.63;10.70;;;18.50;73.00;;;;;;5066050;28;20856;-77
2022/05/10 08:08:12;;;;;;;15.93;11.00;;;18.60;73.10;;;;;;5066465;28;20465;-77
2022/05/10 08:10:41;;;;;;;13.93;11.20;;;18.60;73.20;;;;;;5064668;28;20458;-77
2022/05/10 08:13:13;;;;;;;13.37;10.60;;;18.60;73.30;;;;;;5065893;28;20486;-77
2022/05/10 08:15:41;;;;;;;13.73;9.77;;;18.70;73.40;;;;;;5059126;28;20470;-77
2022/05/10 08:18:10;;;;;;;16.73;10.47;;;18.80;73.50;;;;;;5066334;28;20520;-77
2022/05/10 08:20:39;;;;;;;14.33;10.67;;;18.90;73.60;;;;;;5064311;28;20453;-78
2022/05/10 08:23:07;;;;;;;12.93;10.40;;;18.90;73.60;;;;;;5065351;28;20504;-77
2022/05/10 08:25:36;;;;;;;14.37;10.40;;;19.00;73.60;;;;;;5063129;28;20472;-77
2022/05/10 08:28:06;;;;;;;15.27;11.50;;;19.10;73.70;;;;;;5065363;28;20500;-77
2022/05/10 08:30:34;;;;;;;14.03;11.07;;;19.20;73.80;;;;;;5065008;28;20498;-77
2022/05/10 08:33:05;;;;;;;14.50;11.47;;;19.30;74.00;;;;;;5066480;28;20478;-78
2022/05/10 08:35:42;;;;;;;15.43;11.30;;;19.30;73.90;;;;;;5065894;28;21161;-78
2022/05/10 08:38:10;;;;;;;12.93;10.90;;;19.40;73.80;;;;;;5065502;28;20823;-78
2022/05/10 08:40:43;;;;;;;13.40;11.23;;;19.50;73.80;;;;;;5064622;28;20438;-78
2022/05/10 08:43:20;;;;;;;16.93;10.70;;;19.50;73.70;;;;;;5065415;28;20477;-78
2022/05/10 08:45:49;;;;;;;11.93;9.50;;;19.60;73.70;;;;;;5063494;28;20915;-77
2022/05/10 08:48:17;;;;;;;14.10;10.77;;;19.60;73.60;;;;;;5065248;28;20460;-78
2022/05/10 08:50:54;;;;;;;12.80;10.90;;;19.60;73.60;;;;;;5065927;28;20545;-78
2022/05/10 08:53:22;;;;;;;13.63;10.10;;;19.70;73.40;;;;;;5064314;28;20477;-77
2022/05/10 08:55:56;;;;;;;16.30;10.40;;;19.70;73.30;;;;;;5063710;28;20473;-77
2022/05/10 08:58:47;;;;;;;13.00;10.53;;;19.80;73.30;;;;;;5062459;28;20548;-77
2022/05/10 09:01:40;;;;;;;18.17;10.53;;;19.90;73.30;;;;;;5065194;28;20493;-77
2022/05/10 09:04:24;;;;;;;13.90;10.17;;;19.90;73.50;;;;;;5064591;28;20463;-77
2022/05/10 09:06:58;;;;;;;14.50;10.20;;;20.00;73.50;;;;;;5065017;28;20503;-78
2022/05/10 09:09:29;;;;;;;11.57;8.83;;;20.10;73.70;;;;;;5061954;28;20469;-79
2022/05/10 09:12:15;;;;;;;13.10;9.70;;;20.30;73.70;;;;;;5064720;28;20528;-80
2022/05/10 09:14:48;;;;;;;12.03;9.10;;;20.50;73.40;;;;;;5064760;28;20459;-80
2022/05/10 09:17:18;;;;;;;11.70;9.40;;;20.70;73.20;;;;;;5060324;28;20480;-78
2022/05/10 09:19:46;;;;;;;13.73;8.87;;;20.90;73.00;;;;;;5063374;28;20464;-78
2022/05/10 09:22:43;;;;;;;12.60;10.00;;;21.00;72.50;;;;;;5066529;28;20522;-80
2022/05/10 09:25:23;;;;;;;10.40;8.27;;;21.20;72.40;;;;;;5065442;28;20482;-80
2022/05/10 09:27:53;;;;;;;12.20;8.40;;;21.30;72.10;;;;;;5062276;28;20457;-78
2022/05/10 09:30:30;;;;;;;10.90;8.03;;;21.40;71.90;;;;;;5061681;28;21597;-77
2022/05/10 09:36:05;;;;;;;13.37;8.87;;;21.50;71.40;;;;;;5077219;28;20557;-77
2022/05/10 09:38:35;;;;;;;11.23;8.63;;;21.50;71.20;;;;;;5061566;28;20468;-75
2022/05/10 09:41:03;;;;;;;12.67;8.70;;;21.40;71.00;;;;;;5063325;28;20528;-79
2022/05/10 09:43:33;;;;;;;12.30;8.93;;;21.40;70.80;;;;;;5064868;28;20523;-79
2022/05/10 09:46:08;;;;;;;11.30;8.73;;;21.40;70.90;;;;;;5064557;28;20473;-78
2022/05/10 09:48:37;;;;;;;10.37;8.17;;;21.50;70.90;;;;;;5062759;28;20461;-76
2022/05/10 09:51:31;;;;;;;10.57;7.53;;;21.50;70.70;;;;;;5065526;28;21077;-76
2022/05/10 09:54:04;;;;;;;11.60;8.50;;;21.60;70.40;;;;;;5064043;28;20447;-78
2022/05/10 09:56:37;;;;;;;13.23;9.10;;;21.70;70.10;;;;;;5062251;28;20462;-79
2022/05/10 09:59:29;;;;;;;11.07;9.17;;;21.70;70.30;;;;;;5064492;28;21021;-76
2022/05/10 10:02:01;;;;;;;10.53;7.47;;;21.70;70.10;;;;;;5063173;28;20663;-77
2022/05/10 10:04:32;;;;;;;9.90;8.37;;;21.80;69.90;;;;;;5063519;28;20890;-78
2022/05/10 10:07:09;;;;;;;12.90;7.60;;;21.80;69.80;;;;;;5065676;28;20556;-76
2022/05/10 10:09:38;;;;;;;12.03;7.87;;;21.90;69.60;;;;;;5066963;28;20471;-79
2022/05/10 10:12:15;;;;;;;8.47;6.77;;;22.00;69.50;;;;;;5067549;28;20498;-78
2022/05/10 10:14:46;;;;;;;8.90;7.00;;;22.00;69.20;;;;;;5066922;28;20541;-78
2022/05/10 10:17:22;;;;;;;10.33;7.90;;;22.10;68.90;;;;;;5065905;28;20471;-79
2022/05/10 10:19:54;;;;;;;10.20;7.60;;;22.20;68.80;;;;;;5062956;28;20458;-79
2022/05/10 10:22:29;;;;;;;10.03;7.43;;;22.20;68.20;;;;;;5063308;28;22698;-77
2022/05/10 10:25:02;;;;;;;10.80;7.10;;;22.20;67.70;;;;;;5066765;28;20453;-79
2022/05/10 10:27:36;;;;;;;12.10;7.20;;;22.30;67.70;;;;;;5062503;28;20489;-77
2022/05/10 10:30:10;;;;;;;11.20;7.60;;;22.30;67.10;;;;;;5066821;28;20532;-77
2022/05/10 10:32:44;;;;;;;9.57;6.30;;;22.30;67.10;;;;;;5068291;28;20482;-77
2022/05/10 10:35:18;;;;;;;10.50;7.03;;;22.40;66.90;;;;;;5076721;28;20467;-76
2022/05/10 10:37:51;;;;;;;10.00;6.70;;;22.40;66.60;;;;;;5066059;28;20451;-77
2022/05/10 10:40:30;;;;;;;8.13;6.37;;;22.40;66.40;;;;;;5063849;28;20468;-77
2022/05/10 10:43:07;;;;;;;9.37;6.63;;;22.50;66.20;;;;;;5068182;28;20568;-79
2022/05/10 10:45:40;;;;;;;8.20;5.93;;;22.60;65.70;;;;;;5066590;28;20465;-79
2022/05/10 10:48:25;;;;;;;8.17;6.70;;;22.60;65.70;;;;;;5063342;28;20475;-79
2022/05/10 10:50:54;;;;;;;9.53;6.80;;;22.70;65.70;;;;;;5065074;28;20548;-79
2022/05/10 10:53:25;;;;;;;10.20;6.87;;;22.80;65.70;;;;;;5067081;28;20527;-79
2022/05/10 10:56:15;;;;;;;9.90;6.90;;;22.90;65.00;;;;;;5068809;28;20467;-78
2022/05/10 10:58:55;;;;;;;7.70;5.80;;;23.00;65.00;;;;;;5067697;28;20458;-78
2022/05/10 11:01:52;;;;;;;8.00;6.00;;;23.00;64.40;;;;;;5086080;28;20513;-78
2022/05/10 11:04:41;;;;;;;7.80;5.87;;;23.00;64.40;;;;;;5088870;28;20457;-78
2022/05/10 11:07:18;;;;;;;9.00;6.00;;;23.10;64.30;;;;;;5073390;28;21006;-78
2022/05/10 11:09:54;;;;;;;9.27;7.10;;;23.20;64.10;;;;;;5075162;28;21097;-78
2022/05/10 11:12:44;;;;;;;11.23;6.53;;;23.20;64.00;;;;;;5074761;28;20529;-78
2022/05/10 11:15:32;;;;;;;6.80;5.00;;;23.30;63.50;;;;;;5078322;28;20450;-78
2022/05/10 11:18:20;;;;;;;7.90;5.03;;;23.30;62.80;;;;;;5077794;28;20461;-78
2022/05/10 11:20:55;;;;;;;7.63;4.63;;;23.30;61.30;;;;;;5081295;28;20576;-78
2022/05/10 11:23:32;;;;;;;7.40;5.00;;;23.40;62.40;;;;;;5094198;28;20505;-78
2022/05/10 11:26:15;;;;;;;6.10;4.63;;;23.40;62.10;;;;;;5074701;28;20460;-79
2022/05/10 11:29:03;;;;;;;8.43;5.40;;;23.40;61.30;;;;;;5078348;28;20480;-79
2022/05/10 11:31:37;;;;;;;6.93;4.60;;;23.30;61.60;;;;;;5077338;28;20576;-79
2022/05/10 11:34:26;;;;;;;7.00;4.87;;;23.30;61.60;;;;;;5076512;28;20465;-78
2022/05/10 11:36:59;;;;;;;8.10;5.43;;;23.30;61.50;;;;;;5080256;28;20816;-79
2022/05/10 11:39:54;;;;;;;8.10;5.73;;;23.30;61.40;;;;;;5094377;28;20863;-78
2022/05/10 11:42:29;;;;;;;9.30;5.53;;;23.40;61.40;;;;;;5076253;28;20938;-78
2022/05/10 11:45:19;;;;;;;6.90;5.27;;;23.40;61.40;;;;;;5080435;28;21123;-78
2022/05/10 11:48:24;;;;;;;7.10;4.90;;;23.40;61.40;;;;;;5079343;28;20520;-78
2022/05/10 11:54:38;;;;;;;7.73;5.43;;;23.40;61.10;;;;;;5080558;28;20534;-79
2022/05/10 11:57:10;;;;;;;7.87;5.30;;;23.40;61.00;;;;;;5090624;28;20538;-78
2022/05/10 11:59:41;;;;;;;7.17;4.80;;;23.30;60.80;;;;;;5083551;28;20461;-78
2022/05/10 12:02:45;;;;;;;8.17;5.53;;;23.30;60.50;;;;;;5080016;28;20590;-78
2022/05/10 12:05:27;;;;;;;10.30;5.80;;;23.30;60.60;;;;;;5079911;28;20473;-78
2022/05/10 12:07:57;;;;;;;7.93;5.27;;;23.30;60.60;;;;;;5082944;28;20474;-78
2022/05/10 12:10:37;;;;;;;7.13;5.77;;;23.30;60.70;;;;;;5080569;28;20526;-79
2022/05/10 12:13:07;;;;;;;7.70;5.20;;;23.30;60.70;;;;;;5072289;28;20484;-79
2022/05/10 12:21:57;;;;;;;8.73;5.57;;;23.40;60.70;;;;;;5091833;28;20576;-79
2022/05/10 12:24:33;;;;;;;8.67;6.07;;;23.40;60.50;;;;;;5072117;28;20458;-80
2022/05/10 12:27:35;;;;;;;8.93;4.70;;;23.50;60.60;;;;;;5068835;28;20565;-78
2022/05/10 12:30:30;;;;;;;9.47;5.27;;;23.50;60.00;;;;;;5072451;28;20469;-78
2022/05/10 12:32:59;;;;;;;7.20;5.30;;;23.50;60.40;;;;;;5075618;28;20482;-78
2022/05/10 12:36:05;;;;;;;9.23;6.30;;;23.50;60.40;;;;;;5074308;28;20460;-79
2022/05/10 12:38:44;;;;;;;8.93;5.60;;;23.50;60.40;;;;;;5077233;28;20545;-78
2022/05/10 12:41:46;;;;;;;8.50;5.57;;;23.60;60.00;;;;;;5075767;28;20546;-78
2022/05/10 12:44:56;;;;;;;7.73;5.43;;;23.60;60.20;;;;;;5075990;28;20464;-78
2022/05/10 12:47:40;;;;;;;7.80;5.43;;;23.60;60.60;;;;;;5014076;28;20484;-78
2022/05/10 12:50:33;;;;;;;7.10;5.00;;;23.60;60.40;;;;;;5069827;28;20462;-78
2022/05/10 12:53:18;;;;;;;7.17;4.73;;;23.60;60.30;;;;;;5076690;28;21284;-79
2022/05/10 12:55:48;;;;;;;8.63;5.40;;;23.70;60.20;;;;;;5092870;28;20490;-78
2022/05/10 12:58:31;;;;;;;7.10;5.17;;;23.80;60.10;;;;;;5076489;28;20466;-78
2022/05/10 13:01:01;;;;;;;8.23;5.30;;;23.80;60.10;;;;;;5065626;28;21126;-79
2022/05/10 13:03:35;;;;;;;9.67;5.60;;;23.90;60.10;;;;;;5074935;28;20493;-79
2022/05/10 13:06:15;;;;;;;7.90;5.83;;;23.90;60.20;;;;;;5077027;28;20457;-78
2022/05/10 13:09:11;;;;;;;8.00;5.87;;;23.90;60.10;;;;;;5072429;28;20481;-78
2022/05/10 13:11:44;;;;;;;8.13;5.53;;;23.90;60.00;;;;;;5065610;28;20559;-78
2022/05/10 13:14:15;;;;;;;7.57;5.33;;;23.90;60.10;;;;;;5069804;28;20484;-79
2022/05/10 13:16:49;;;;;;;9.17;5.87;;;23.90;59.90;;;;;;5076933;28;20484;-78
2022/05/10 13:19:18;;;;;;;6.87;5.00;;;23.90;59.60;;;;;;5067556;28;20537;-78
2022/05/10 13:21:55;;;;;;;7.87;5.00;;;23.90;59.70;;;;;;5078309;28;20478;-78
2022/05/10 13:24:24;;;;;;;7.43;4.97;;;23.90;59.30;;;;;;5071127;28;20468;-78
2022/05/10 13:26:58;;;;;;;8.03;5.87;;;23.90;59.30;;;;;;5078373;28;20498;-78
2022/05/10 13:29:48;;;;;;;8.07;5.60;;;23.90;59.40;;;;;;5074954;28;20487;-79
2022/05/10 13:32:33;;;;;;;7.97;5.70;;;23.90;59.30;;;;;;5065542;28;20490;-79
2022/05/10 13:35:09;;;;;;;7.83;5.27;;;23.90;59.20;;;;;;5069842;28;20458;-79